cliquez pour ajouter le site Runraid à vos favoris  English version (google)  Retour à l'accueil Ecrire à l'auteur du site Runraid : Michel Jourdan



Les prochaines courses


Les derniers résultats

cliquez pour visualiser la page complète relatant la chronologie des éruptions du Piton de la Fournaise
éruptions Piton de la Fournaise


Ile de La Réunion

 Diagonale des Fous 

Ecrire au créateur du site : Michel Jourdan
Contact


2016-07-31 - Foulées des Casernes 12 km

Pour consulter le palmarès d'un coureur, un clic sur son nom !

Vous avez des remarques, corrections, ... sur ces résultats , un clic sur --> pour me transmettre toute information concernant les classements


Foulées des Casernes 12 km - 2016 : classement des 163 finishers
Place Nom Temps Cat. Club Sexe Clt/cat.
Place Nom Temps Cat. Club Sexe Clt/cat.
1 BARDEUR Nicolas 00:36:58 JUM CAPP M 106
2 IMONJA Jeremie 00:37:35 V1M DSA M 1 V1M 127
3 LALLEMAND Kevin 00:38:23 SEM CASL M 179
4 DUCHEMANE SAMUEL 00:38:38 SEM M 2 SEM 98
5 DAMOUR Ludovic 00:38:52 SEM M 3 SEM 210
6 BARDEUR Mickael 00:40:07 V1M M 2 V1M 105
7 JOANY Emmanuel 00:40:23 SEM M 4 SEM 130
8 GILEROT Juliano 00:40:36 SEM CALS SUD M 5 SEM 122
9 MAILLOT Didier 00:41:32 SEM M 6 SEM 188
10 PAYET Patrice 00:41:47 SEM M 7 SEM 177
11 HOAREAU Sebastien 00:42:04 SEM M 8 SEM 203
12 ROBERT Emmanuel 00:42:36 SEM M 9 SEM 204
13 MAURIN DOMINIQUE 00:42:49 V2M M 1 V2M 90
14 LAURET mickael 00:42:58 SEM M 10 SEM 24
15 POQUITA JEAN MARIE 00:43:44 V2M CALS SUD M 2 V2M 50
16 GONTHIER DAVID 00:43:52 SEM CASL M 11 SEM 63
17 SEYCHELLE Sully 00:44:03 V2M M 3 V2M 213
18 LEPELTIER ANTHONY 00:45:02 SEM M 12 SEM 96
19 VADIVELOU Marie Augustine 00:45:09 SEF COSPI F 1ere F 153
20 DENA Freddy 00:45:15 SEM M 13 SEM 209
21 TAUROBEAULION Thierry 00:45:42 SEM M 14 SEM 152
22 FIANU Adrian 00:45:46 V1M M 3 V1M 117
23 RENNEVILLE roberto 00:45:47 V2M M 4 V2M 79
24 TIMBOU Georget 00:45:49 V1M M 4 V1M 175
25 OMARJEE sulliman 00:45:57 V2M M 5 V2M 76
26 LAURET David 00:46:31 SEM M 15 SEM 74
27 BOYER Michel 00:46:38 V3M M 1 V3M 197
28 DARTIGUELONGUE Christophe 00:47:27 SEM M 16 SEM 176
29 GIBRALTA Dany 00:47:44 V2M M 6 V2M 120
30 NOUCAMA Willy 00:47:45 V1M M 5 V1M 194
31 BILLA KARL 00:48:02 SEM M 17 SEM 61
32 ERUDEL Raphael 00:48:04 SEM M 18 SEM 207
33 BRABAN Jocelyn 00:48:05 V1M M 6 V1M 112
34 BOYER JEAN MARY 00:48:16 V3M M 2 V3M 8
35 HOAREAU jluc 00:48:34 V2M M 7 V2M 17
36 MADILHAC Arnaud 00:48:49 SEM M 19 SEM 136
37 GIGAN RICO 00:48:52 V1M M 7 V1M 9
38 MUSSARD Bernard 00:49:02 V1M M 8 V1M 208
39 HECALLE JEAN CLAUDE 00:49:03 V3M CASL M 3 V3M 78
40 GANOVA ALEXANDRE 00:49:40 SEM ORT M 20 SEM 56
41 ACAPANDIE Jocelyn 00:49:43 V2M M 8 V2M 191
42 DIJOUX Daniel 00:49:45 V1M M 9 V1M 198
43 CADET Jonathan 00:49:46 SEM M 21 SEM 66
44 BIEN AIME Jean Willy 00:50:20 V1M M 10 V1M 109
45 SINCERE pascal 00:50:25 V1M M 11 V1M 70
46 BAZON Eric 00:50:26 V1M M 12 V1M 108
47 DIJOUX Joseph Alfred 00:50:56 V3M M 4 V3M 185
48 GAUTHIER ADRIEN 00:51:00 V1M DSA M 13 V1M 68
49 VAVELIN Fred 00:51:02 V2M M 9 V2M 154
50 PICARD Paul 00:51:15 V2M M 10 V2M 31
51 AURE Fabrice 00:51:17 V2M M 11 V2M 103
52 SALING mathieu 00:51:21 V1M M 14 V1M 80
53 IDRAHIMA Daniel 00:51:26 V1M M 15 V1M 126
54 GRONDIN Laurent 00:51:27 SEM M 22 SEM 34
55 MOREL Clarine 00:51:31 SEF F 2eme F 140
56 ABRISKA Eric 00:51:40 V1M M 16 V1M 199
57 QUINTON Joel 00:52:15 SEM M 23 SEM 145
58 DEPECHE YANN 00:52:18 V1M M 17 V1M 82
59 LIGNON Jean Claude 00:52:26 V1M M 18 V1M 133
60 TOURVILLE Fabrice 00:52:31 JUM M 2 JUM 183
61 AVRIL JULIE 00:52:32 SEF GAT F 3eme F 60
62 LACROIX ROMAIN 00:52:32 SEM M 24 SEM 99
63 TRUFFY Marielle 00:52:34 V1F F 4eme F / 1 V1F 84
64 DORSEUIL Richard 00:52:41 V2M M 12 V2M 1
65 BEGUE Johan 00:52:45 SEM M 25 SEM 205
66 GASTRIN Fredo 00:52:55 V4M CASL M 1 V4M 201
67 AH KITE DAVID 00:52:59 V1M M 19 V1M 88
68 BROSSARD SERGE 00:52:59 V1M M 20 V1M 92
69 CASINHAS stephane 00:53:04 V1M M 21 V1M 45
70 AUBERVAL Thierry 00:53:13 V1M M 22 V1M 101
71 QUEFFELEC Mickala 00:53:24 SEF F 5eme F / 4 SEF 184
72 LACOSTE Nicole 00:53:24 V1F F 6eme F / 2 V1F 206
73 BALISTE daniel 00:53:39 V3M M 5 V3M 53
74 FOLIO Rosaire 00:54:09 V2M M 13 V2M 118
75 GONIER FREDERIC 00:54:34 V2M RUN ODYSSE M 14 V2M 94
76 RIVIERE Yohann 00:54:46 SEM M 26 SEM 211
77 BALISTE Laetitia 00:54:50 SEF F 7eme F / 5 SEF 104
78 TOUSSAINT Jonathan 00:54:53 SEM M 27 SEM 75
79 BODAR Marc 00:54:57 V1M M 23 V1M 73
80 MUSSARD Jean Francois 00:55:12 V1M M 24 V1M 36
81 HOAREAU Jerome 00:55:16 SEM M 28 SEM 58
82 FERARD guy rodrigue 00:55:27 SEM M 29 SEM 64
83 METRO STEPHANE 00:55:30 SEM RP974 M 30 SEM 52
84 FOLGOAT Christian 00:55:42 SEM M 31 SEM 150
85 DURAND Celine 00:55:46 SEF F 8eme F / 6 SEF 62
86 MEZINO Jean Hugues 00:55:52 V2M M 15 V2M 139
87 AJORQUE David 00:55:53 SEM M 32 SEM 100
88 LATOUR Frederic 00:55:53 SEM M 33 SEM 132
89 SIBI Jean Marc 00:56:09 V2M M 16 V2M 148
90 LO KING SING Frederic 00:56:20 SEM M 34 SEM 135
91 DURAND SOPHIE 00:56:47 V1F F 9eme F / 3 V1F 16
92 PAYET eric 00:56:55 V1M M 25 V1M 7
93 GIGANT Frederic 00:56:59 V1M M 26 V1M 121
94 SAMINADIN Olivier 00:57:06 SEM M 35 SEM 192
95 DUCHEMANE VERONIQUE 00:57:07 SEF F 10eme F / 7 SEF 95
96 DUCHEMANE VICTORINE 00:57:07 SEF F 11eme F / 8 SEF 97
97 GRILLOT ANNE 00:57:08 V1F F 12eme F / 4 V1F 30
98 ELKIENBAUM PHILIPPE 00:57:26 V3M CALS SUD M 6 V3M 91
99 PASSINAY Fabrice 00:57:42 V1M M 27 V1M 180
100 CHAUVEAU Patrick 00:57:52 V1M M 28 V1M 114
101 MOREL Tony 00:57:54 SEM M 36 SEM 141
102 LATCHIMY Jean Yves 00:58:01 V1M M 29 V1M 131
103 TANTZY Fabrice 00:58:30 V1M M 30 V1M 151
104 MUSSARD Geraldine 00:58:48 SEF F 13eme F / 9 SEF 142
105 DIJOUX Jean Fabrice 00:59:12 V1M M 31 V1M 190
106 HOAREAU Yolaine 00:59:15 V2F DSA F 14eme F / 1 V2F 124
107 ABLANCOURT JEAN EMILE 00:59:25 V3M CALS SUD M 7 V3M 51
108 WEIGEL FREDERIQUE EVA 00:59:48 SEF F 15eme F / 10 SEF 69
109 TURPIN ROHAN 01:00:12 ESM M 1 ESM 86
110 INFANTE Etienne 01:00:24 SEM M 37 SEM 182
111 HOARAU Brice 01:00:40 V1M M 32 V1M 32
112 SIMME JEAN PRISCA 01:00:46 SEM CASM M 38 SEM 87
113 GOURSALO Gilbert 01:01:08 V2M M 17 V2M 195
114 FONTAINE Stephane 01:01:18 SEM M 39 SEM 37
115 MORADA Caroline 01:01:20 V1F F 16eme F / 5 V1F 200
116 LAW SON Thierry 01:01:23 SEM M 40 SEM 59
117 OULEDI Marie Renee 01:01:36 SEF F 17eme F / 11 SEF 33
118 LIONI RAYMOND 01:01:48 V2M RP974 M 18 V2M 29
119 JALMA Arnaud 01:01:50 V3M M 8 V3M 129
120 CALMETTES Rasoanazara 01:02:21 SEF F 18eme F / 12 SEF 6
121 FAVEUR MARIE AIMEE 01:02:23 V2F F 19eme F / 2 V2F 65
122 SINAPAYEL ANTHONY 01:03:07 SEM M 41 SEM 35
123 HOAREAU ePOUSE SINAPAYEL MARIE AUDREY 01:03:07 SEF F 20eme F / 13 SEF 19
124 LAW LIN Gilbert 01:03:25 V3M M 9 V3M 196
125 QUINOT SABINE 01:03:57 V1F CALS SUD F 21eme F / 6 V1F 23
126 AUBRY Axel 01:04:52 SEM M 42 SEM 102
127 ROUS VERONIQUE 01:04:56 V1F F 22eme F / 7 V1F 77
128 GERVILLE MARIE NOELLE 01:05:07 V1F CALS SUD F 23eme F / 8 V1F 40
129 JeGOU Marine 01:05:22 SEF F 24eme F / 14 SEF 72
130 HOARAU Vincent 01:05:26 SEM M 43 SEM 202
131 GERVILLE Pascaline 01:05:33 V1F F 25eme F / 9 V1F 119
132 VOLNAY Herve 01:05:35 V2M M 19 V2M 156
133 VIENNE Luguy 01:05:52 V1M M 33 V1M 155
134 SIEW THIEN SENG Nicolas 01:05:57 SEM M 44 SEM 149
135 NICE Indina 01:06:08 ESF F 26eme F / 1 ESF 55
136 LALLEMAND Joel 01:06:13 V2M M 20 V2M 186
137 LALLEMAND Brigitte 01:06:13 V2F F 27eme F / 3 V2F 187
138 BLAINVILLE Olivier 01:06:13 V1M M 34 V1M 110
139 ABLANCOURT MARIE LISE 01:07:07 V3F CALS SUD F 28eme F / 1 V3F 38
140 ESTERLINGOT MICHEL 01:07:09 V3M CALS SUD M 10 V3M 41
141 GeRoME Caroline 01:08:20 SEF F 29eme F / 15 SEF 48
142 QUINOT JEAN YVES 01:08:32 V1M M 35 V1M 49
143 QUINOT PATRICIA 01:08:32 V1F F 30eme F / 10 V1F 21
144 BIJOUX Chamima 01:08:39 SEF F 31eme F / 16 SEF 71
145 ABLANCOURT MARIE LOURDES 01:08:48 V2F CALS SUD F 32eme F / 4 V2F 83
146 RICHAUVET Josian 01:09:37 V1M CALS SUD M 36 V1M 212
147 RICHAUVET NADINE 01:09:38 SEF CALS SUD F 33eme F / 17 SEF 44
148 FREDOUIL Livia 01:09:41 SEF F 34eme F / 18 SEF 181
149 AMGHAR MO 01:09:50 SEM M 45 SEM 81
150 QUINOT KARINE 01:11:20 SEF F 35eme F / 19 SEF 20
151 PLANESSE Brigitte 01:11:25 V2F F 36eme F / 5 V2F 25
152 LACHENAL Marie Jose 01:13:25 SEF F 37eme F / 20 SEF 57
153 NASSO Alix 01:13:54 SEF F 38eme F / 21 SEF 54
154 AUBERVAL Virginie 01:14:23 SEF F 39eme F / 22 SEF 67
155 LIGNON Reine Claide 01:14:26 V1F F 40eme F / 11 V1F 134
156 PAJINADON MARIE JULIANE 01:15:48 V2F CALS SUD F 41eme F / 6 V2F 43
157 HONORE Romain 01:15:56 ESM M 2 ESM 125
158 BUEGUE Alexandre 01:15:57 ESM M 3 ESM 113
159 LEDOUX Melanie 01:17:10 SEF F 42eme F / 23 SEF 27
160 FISCHER Nadine 01:19:50 V1F F 43eme F / 12 V1F 47
161 HOUWENAGHEL Olga 01:19:50 V1F F 44eme F / 13 V1F 46
162 DOURAGUIA Severine 01:22:11 V1F F 45eme F / 14 V1F 193
163 RITNER Carole 01:23:52 SEF F 46eme F / 24 SEF 146


ReferencementCe site est listé dans la catégorie Sport : Sports extrêmes Dictionnaire
| Accueil | La Réunion  Vue du ciel | Météo | Cyclones | Volcan | Cirques de Mafate , Cilaos , Salazie | Photos Randonnées | Randonnées Réunion: Randos Espiègle , Courses montagne | Diagonale des Fous |  Marathon des Sables | Voyages Les stats du site | Fonds écran | Plan du site | Blog de runraid | Galerie photos Sport Réunion |